Map

Track Data

SID SEASON NUMBER BASIN SUBBASIN NAME ISO_TIME NATURE LAT LON WMO_WIND WMO_PRES WMO_AGENCY TRACK_TYPE DIST2LAND LANDFALL IFLAG USA_AGENCY USA_ATCF_ID USA_LAT USA_LON USA_RECORD USA_STATUS USA_WIND USA_PRES USA_SSHS USA_R34_NE USA_R34_SE USA_R34_SW USA_R34_NW USA_R50_NE USA_R50_SE USA_R50_SW USA_R50_NW USA_R64_NE USA_R64_SE USA_R64_SW USA_R64_NW USA_POCI USA_ROCI USA_RMW USA_EYE TOKYO_LAT TOKYO_LON TOKYO_GRADE TOKYO_WIND TOKYO_PRES TOKYO_R50_DIR TOKYO_R50_LONG TOKYO_R50_SHORT TOKYO_R30_DIR TOKYO_R30_LONG TOKYO_R30_SHORT TOKYO_LAND CMA_LAT CMA_LON CMA_CAT CMA_WIND CMA_PRES HKO_LAT HKO_LON HKO_CAT HKO_WIND HKO_PRES NEWDELHI_LAT NEWDELHI_LON NEWDELHI_GRADE NEWDELHI_WIND NEWDELHI_PRES NEWDELHI_CI NEWDELHI_DP NEWDELHI_POCI REUNION_LAT REUNION_LON REUNION_TYPE REUNION_WIND REUNION_PRES REUNION_TNUM REUNION_CI REUNION_RMW REUNION_R34_NE REUNION_R34_SE REUNION_R34_SW REUNION_R34_NW REUNION_R50_NE REUNION_R50_SE REUNION_R50_SW REUNION_R50_NW REUNION_R64_NE REUNION_R64_SE REUNION_R64_SW REUNION_R64_NW BOM_LAT BOM_LON BOM_TYPE BOM_WIND BOM_PRES BOM_TNUM BOM_CI BOM_RMW BOM_R34_NE BOM_R34_SE BOM_R34_SW BOM_R34_NW BOM_R50_NE BOM_R50_SE BOM_R50_SW BOM_R50_NW BOM_R64_NE BOM_R64_SE BOM_R64_SW BOM_R64_NW BOM_ROCI BOM_POCI BOM_EYE BOM_POS_METHOD BOM_PRES_METHOD NADI_LAT NADI_LON NADI_CAT NADI_WIND NADI_PRES WELLINGTON_LAT WELLINGTON_LON WELLINGTON_WIND WELLINGTON_PRES DS824_LAT DS824_LON DS824_STAGE DS824_WIND DS824_PRES TD9636_LAT TD9636_LON TD9636_STAGE TD9636_WIND TD9636_PRES TD9635_LAT TD9635_LON TD9635_WIND TD9635_PRES TD9635_ROCI NEUMANN_LAT NEUMANN_LON NEUMANN_CLASS NEUMANN_WIND NEUMANN_PRES MLC_LAT MLC_LON MLC_CLASS MLC_WIND MLC_PRES USA_GUST BOM_GUST BOM_GUST_PER REUNION_GUST REUNION_GUST_PER USA_SEAHGT USA_SEARAD_NE USA_SEARAD_SE USA_SEARAD_SW USA_SEARAD_NW STORM_SPEED STORM_DIR
1914266N12143 1914 36 WP MM NOT_NAMED 1914-09-23 10:00:00 NR 12.3000 142.800 main 1638 1634 __________O___ -1 12.3000 142.800 7 3 303
1914266N12143 1914 36 WP MM NOT_NAMED 1914-09-23 12:00:00 NR 12.3612 142.699 main 1645 1638 __________P___ -1 12.3612 142.699 7 4 301
1914266N12143 1914 36 WP MM NOT_NAMED 1914-09-23 15:00:00 NR 12.4550 142.536 main 1649 1646 __________P___ -1 12.4550 142.536 7 4 299
1914266N12143 1914 36 WP MM NOT_NAMED 1914-09-23 18:00:00 NR 12.5541 142.341 main 1654 1648 __________P___ -1 12.5541 142.341 7 5 296
1914266N12143 1914 36 WP MM NOT_NAMED 1914-09-23 21:00:00 NR 12.6617 142.096 main 1659 1655 __________P___ -1 12.6617 142.096 7 5 294
1914266N12143 1914 36 WP MM NOT_NAMED 1914-09-23 22:00:00 NR 12.7000 142.000 main 1655 1651 __________O___ -1 12.7000 142.000 3 7 291
1914266N12143 1914 36 WP MM NOT_NAMED 1914-09-24 00:00:00 NR 12.7809 141.785 main 1657 1648 __________P___ -1 12.7809 141.785 3 7 291
1914266N12143 1914 36 WP MM NOT_NAMED 1914-09-24 03:00:00 NR 12.9145 141.417 main 1650 1646 __________P___ -1 12.9145 141.417 3 8 291
1914266N12143 1914 36 WP MM NOT_NAMED 1914-09-24 06:00:00 NR 13.0657 141.022 main 1655 1628 __________P___ -1 13.0657 141.022 3 8 293
1914266N12143 1914 36 WP MM NOT_NAMED 1914-09-24 09:00:00 NR 13.2375 140.627 main 1628 1619 __________P___ -1 13.2375 140.627 3 8 295
1914266N12143 1914 36 WP MM NOT_NAMED 1914-09-24 10:00:00 NR 13.3000 140.500 main 1619 1599 __________O___ -1 13.3000 140.500 4 8 299
1914266N12143 1914 36 WP MM NOT_NAMED 1914-09-24 12:00:00 NR 13.4274 140.280 main 1599 1570 __________P___ -1 13.4274 140.280 4 7 303
1914266N12143 1914 36 WP MM NOT_NAMED 1914-09-24 15:00:00 NR 13.6374 139.962 main 1570 1533 __________P___ -1 13.6374 139.962 4 8 306
1914266N12143 1914 36 WP MM NOT_NAMED 1914-09-24 18:00:00 NR 13.8675 139.646 main 1533 1506 __________P___ -1 13.8675 139.646 4 8 307
1914266N12143 1914 36 WP MM NOT_NAMED 1914-09-24 21:00:00 NR 14.1145 139.316 main 1506 1498 __________P___ -1 14.1145 139.316 4 8 308
1914266N12143 1914 36 WP MM NOT_NAMED 1914-09-24 22:00:00 NR 14.2000 139.200 main 1498 1479 __________O___ -1 14.2000 139.200 4 9 306
1914266N12143 1914 36 WP MM NOT_NAMED 1914-09-25 00:00:00 NR 14.3693 138.950 main 1482 1442 __________P___ -1 14.3693 138.950 4 9 305
1914266N12143 1914 36 WP MM NOT_NAMED 1914-09-25 03:00:00 NR 14.6357 138.557 main 1442 1395 __________P___ -1 14.6357 138.557 4 10 305
1914266N12143 1914 36 WP MM NOT_NAMED 1914-09-25 06:00:00 NR 14.9145 138.149 main 1395 1360 __________P___ -1 14.9145 138.149 4 10 306
1914266N12143 1914 36 WP MM NOT_NAMED 1914-09-25 09:00:00 NR 15.2025 137.737 main 1360 1352 __________P___ -1 15.2025 137.737 4 10 306
1914266N12143 1914 36 WP MM NOT_NAMED 1914-09-25 10:00:00 NR 15.3000 137.600 main 1352 1326 __________O___ -1 15.3000 137.600 4 10 307
1914266N12143 1914 36 WP MM NOT_NAMED 1914-09-25 12:00:00 NR 15.4968 137.333 main 1326 1294 __________P___ -1 15.4968 137.333 4 10 308
1914266N12143 1914 36 WP MM NOT_NAMED 1914-09-25 15:00:00 NR 15.7984 136.933 main 1294 1264 __________P___ -1 15.7984 136.933 4 10 308
1914266N12143 1914 36 WP MM NOT_NAMED 1914-09-25 18:00:00 NR 16.1022 136.533 main 1264 1235 __________P___ -1 16.1022 136.533 4 10 308
1914266N12143 1914 36 WP MM NOT_NAMED 1914-09-25 21:00:00 NR 16.4020 136.133 main 1235 1229 __________P___ -1 16.4020 136.133 4 10 308
1914266N12143 1914 36 WP MM NOT_NAMED 1914-09-25 22:00:00 NR 16.5000 136.000 main 1229 1208 __________O___ -1 16.5000 136.000 4 10 307
1914266N12143 1914 36 WP MM NOT_NAMED 1914-09-26 00:00:00 NR 16.6941 135.731 main 1208 1183 __________P___ -1 16.6941 135.731 4 10 307
1914266N12143 1914 36 WP MM NOT_NAMED 1914-09-26 03:00:00 NR 16.9793 135.326 main 1183 1155 __________P___ -1 16.9793 135.326 4 10 306
1914266N12143 1914 36 WP MM NOT_NAMED 1914-09-26 06:00:00 NR 17.2544 134.925 main 1160 1134 __________P___ -1 17.2544 134.925 4 9 305
1914266N12143 1914 36 WP MM NOT_NAMED 1914-09-26 09:00:00 NR 17.5162 134.530 main 1134 1131 __________P___ -1 17.5162 134.530 4 9 305
1914266N12143 1914 36 WP MM NOT_NAMED 1914-09-26 10:00:00 NR 17.6000 134.400 main 1131 1119 __________O___ -1 17.6000 134.400 4 9 304
1914266N12143 1914 36 WP MM NOT_NAMED 1914-09-26 12:00:00 NR 17.7584 134.157 main 1125 1102 __________P___ -1 17.7584 134.157 4 8 304
1914266N12143 1914 36 WP MM NOT_NAMED 1914-09-26 15:00:00 NR 17.9835 133.799 main 1102 1075 __________P___ -1 17.9835 133.799 4 8 303
1914266N12143 1914 36 WP MM NOT_NAMED 1914-09-26 18:00:00 NR 18.2022 133.433 main 1075 1047 __________P___ -1 18.2022 133.433 4 8 301
1914266N12143 1914 36 WP MM NOT_NAMED 1914-09-26 21:00:00 NR 18.4238 133.040 main 1047 1043 __________P___ -1 18.4238 133.040 4 9 300
1914266N12143 1914 36 WP MM NOT_NAMED 1914-09-26 22:00:00 NR 18.5000 132.900 main 1043 1021 __________O___ -1 18.5000 132.900 4 10 300
1914266N12143 1914 36 WP MM NOT_NAMED 1914-09-27 00:00:00 NR 18.6715 132.595 main 1026 993 __________P___ -1 18.6715 132.595 4 10 300
1914266N12143 1914 36 WP MM NOT_NAMED 1914-09-27 03:00:00 NR 18.9352 132.107 main 993 969 __________P___ -1 18.9352 132.107 4 11 299
1914266N12143 1914 36 WP MM NOT_NAMED 1914-09-27 06:00:00 NR 19.1928 131.594 main 969 932 __________P___ -1 19.1928 131.594 4 11 297
1914266N12143 1914 36 WP MM NOT_NAMED 1914-09-27 09:00:00 NR 19.4288 131.073 main 932 912 __________P___ -1 19.4288 131.073 4 11 295
1914266N12143 1914 36 WP MM NOT_NAMED 1914-09-27 10:00:00 NR 19.5000 130.900 main 912 882 __________O___ -1 19.5000 130.900 4 10 292
1914266N12143 1914 36 WP MM NOT_NAMED 1914-09-27 12:00:00 NR 19.6227 130.558 main 882 824 __________P___ -1 19.6227 130.558 4 10 289
1914266N12143 1914 36 WP MM NOT_NAMED 1914-09-27 15:00:00 NR 19.7816 130.046 main 824 774 __________P___ -1 19.7816 130.046 4 10 287
1914266N12143 1914 36 WP MM NOT_NAMED 1914-09-27 18:00:00 NR 19.9216 129.542 main 774 736 __________P___ -1 19.9216 129.542 4 10 286
1914266N12143 1914 36 WP MM NOT_NAMED 1914-09-27 21:00:00 NR 20.0549 129.056 main 738 718 __________P___ -1 20.0549 129.056 4 9 286
1914266N12143 1914 36 WP MM NOT_NAMED 1914-09-27 22:00:00 NR 20.1000 128.900 main 718 691 __________O___ -1 20.1000 128.900 4 9 287
1914266N12143 1914 36 WP MM NOT_NAMED 1914-09-28 00:00:00 NR 20.1891 128.599 main 691 654 __________P___ -1 20.1891 128.599 4 9 288
1914266N12143 1914 36 WP MM NOT_NAMED 1914-09-28 03:00:00 NR 20.3228 128.167 main 654 612 __________P___ -1 20.3228 128.167 4 8 289
1914266N12143 1914 36 WP MM NOT_NAMED 1914-09-28 06:00:00 NR 20.4678 127.750 main 612 578 __________P___ -1 20.4678 127.750 4 8 292
1914266N12143 1914 36 WP MM NOT_NAMED 1914-09-28 09:00:00 NR 20.6364 127.338 main 578 574 __________P___ -1 20.6364 127.338 4 8 294
1914266N12143 1914 36 WP MM NOT_NAMED 1914-09-28 10:00:00 NR 20.7000 127.200 main 574 551 __________O___ -1 20.7000 127.200 4 9 297
1914266N12143 1914 36 WP MM NOT_NAMED 1914-09-28 12:00:00 NR 20.8439 126.896 main 551 524 __________P___ -1 20.8439 126.896 4 10 298
1914266N12143 1914 36 WP MM NOT_NAMED 1914-09-28 15:00:00 NR 21.0851 126.439 main 524 504 __________P___ -1 21.0851 126.439 4 10 301
1914266N12143 1914 36 WP MM NOT_NAMED 1914-09-28 18:00:00 NR 21.3453 126.004 main 504 463 __________P___ -1 21.3453 126.004 4 9 304
1914266N12143 1914 36 WP MM NOT_NAMED 1914-09-28 21:00:00 NR 21.6118 125.615 main 463 449 __________P___ -1 21.6118 125.615 4 9 307
1914266N12143 1914 36 WP MM NOT_NAMED 1914-09-28 22:00:00 NR 21.7000 125.500 main 449 422 __________O___ -1 21.7000 125.500 4 8 308
1914266N12143 1914 36 WP MM NOT_NAMED 1914-09-29 00:00:00 NR 21.8506 125.283 main 422 385 __________P___ -1 21.8506 125.283 4 7 309
1914266N12143 1914 36 WP MM NOT_NAMED 1914-09-29 03:00:00 NR 22.0765 125.008 main 385 359 __________P___ -1 22.0765 125.008 4 7 316
1914266N12143 1914 36 WP MM NOT_NAMED 1914-09-29 06:00:00 NR 22.3189 124.793 main 359 332 __________P___ -1 22.3189 124.793 4 6 327
1914266N12143 1914 36 WP MM NOT_NAMED 1914-09-29 09:00:00 NR 22.5965 124.638 main 332 330 __________P___ -1 22.5965 124.638 4 6 335
1914266N12143 1914 36 WP MM NOT_NAMED 1914-09-29 10:00:00 NR 22.7000 124.600 main 330 317 __________O___ -1 22.7000 124.600 4 7 336
1914266N12143 1914 36 WP MM NOT_NAMED 1914-09-29 12:00:00 NR 22.8954 124.497 main 317 292 __________P___ -1 22.8954 124.497 4 7 340
1914266N12143 1914 36 WP MM NOT_NAMED 1914-09-29 15:00:00 NR 23.2257 124.391 main 292 272 __________P___ -1 23.2257 124.391 4 7 351
1914266N12143 1914 36 WP MM NOT_NAMED 1914-09-29 18:00:00 NR 23.6228 124.367 main 272 257 __________P___ -1 23.6228 124.367 4 9 4
1914266N12143 1914 36 WP MM NOT_NAMED 1914-09-29 21:00:00 NR 24.1121 124.446 main 257 264 __________P___ -1 24.1121 124.446 4 10 10
1914266N12143 1914 36 WP MM NOT_NAMED 1914-09-29 22:00:00 NR 24.3000 124.500 main 264 261 __________O___ -1 24.3000 124.500 4 13 15
1914266N12143 1914 36 WP MM NOT_NAMED 1914-09-30 00:00:00 NR 24.7488 124.636 main 264 263 __________P___ -1 24.7488 124.636 4 15 18
1914266N12143 1914 36 WP MM NOT_NAMED 1914-09-30 03:00:00 NR 25.5110 124.942 main 296 308 __________P___ -1 25.5110 124.942 4 17 22
1914266N12143 1914 36 WP MM NOT_NAMED 1914-09-30 06:00:00 NR 26.3106 125.348 main 361 374 __________P___ -1 26.3106 125.348 4 18 27
1914266N12143 1914 36 WP MM NOT_NAMED 1914-09-30 09:00:00 NR 27.0695 125.828 main 434 440 __________P___ -1 27.0695 125.828 4 17 30
1914266N12143 1914 36 WP MM NOT_NAMED 1914-09-30 10:00:00 NR 27.3000 126.000 main 445 443 __________O___ -1 27.3000 126.000 4 16 36
1914266N12143 1914 36 WP MM NOT_NAMED 1914-09-30 12:00:00 NR 27.7157 126.356 main 461 456 __________P___ -1 27.7157 126.356 4 15 41
1914266N12143 1914 36 WP MM NOT_NAMED 1914-09-30 15:00:00 NR 28.2420 126.917 main 461 381 __________P___ -1 28.2420 126.917 4 14 46
1914266N12143 1914 36 WP MM NOT_NAMED 1914-09-30 18:00:00 NR 28.6832 127.500 main 381 309 __________P___ -1 28.6832 127.500 4 13 51
1914266N12143 1914 36 WP MM NOT_NAMED 1914-09-30 21:00:00 NR 29.0745 128.099 main 309 288 __________P___ -1 29.0745 128.099 4 13 54
1914266N12143 1914 36 WP MM NOT_NAMED 1914-09-30 22:00:00 NR 29.2000 128.300 main 288 __________O___ -1 29.2000 128.300 4 13 55

Digital Typhoon Data and Search

About IBTrACS Database

This database is a web-friendly format of International Best Track Archive for Climate Stewardship (IBTrACS), a global best track data archive curated by NOAA dating back to 1842.

Updated: 2021-11-26